Time;durP1;ratioP1;P1;durP2;ratioP2;P2;SDS_P1;SDS_P2;PMS_P1;PMS_P2;Temp;Humidity;BMP_temperature;BMP_pressure;BME280_temperature;BME280_humidity;BME280_pressure;Samples;Min_cycle;Max_cycle;Signal;HPM_P1;HPM_P2
2022/01/16 00:01:21;;;;;;;;;78.33;62.33;;;;;;;;5061392;28;8824;-80
2022/01/16 00:04:06;;;;;;;;;74.33;58.33;;;;;;;;5064126;28;8872;-80
2022/01/16 00:06:34;;;;;;;;;76.00;54.33;;;;;;;;5062377;28;8849;-80
2022/01/16 00:09:03;;;;;;;;;84.33;64.00;;;;;;;;5063880;28;8876;-79
2022/01/16 00:11:30;;;;;;;;;80.00;61.00;;;;;;;;5063590;28;8872;-80
2022/01/16 00:13:57;;;;;;;;;80.00;59.00;;;;;;;;5062648;28;8987;-79
2022/01/16 00:16:25;;;;;;;;;80.33;61.33;;;;;;;;5063234;28;8879;-79
2022/01/16 00:18:53;;;;;;;;;81.00;59.00;;;;;;;;5060024;28;8874;-79
2022/01/16 00:21:22;;;;;;;;;68.33;51.00;;;;;;;;5061083;28;9700;-79
2022/01/16 00:23:50;;;;;;;;;74.00;59.00;;;;;;;;5062476;28;8876;-80
2022/01/16 00:26:19;;;;;;;;;88.00;65.33;;;;;;;;5062495;28;8848;-79
2022/01/16 00:28:47;;;;;;;;;83.00;63.33;;;;;;;;5063670;28;8866;-79
2022/01/16 00:31:14;;;;;;;;;83.00;62.67;;;;;;;;5061466;28;8827;-80
2022/01/16 00:33:44;;;;;;;;;85.67;63.33;;;;;;;;5063018;28;8876;-80
2022/01/16 00:36:14;;;;;;;;;77.67;60.00;;;;;;;;5061056;28;8994;-80
2022/01/16 00:38:43;;;;;;;;;63.33;52.67;;;;;;;;5062843;28;8969;-79
2022/01/16 00:41:10;;;;;;;;;79.67;60.67;;;;;;;;5062715;28;8864;-80
2022/01/16 00:43:39;;;;;;;;;72.00;59.00;;;;;;;;5062472;28;8945;-80
2022/01/16 00:46:06;;;;;;;;;67.33;55.00;;;;;;;;5063959;28;8876;-80
2022/01/16 00:48:34;;;;;;;;;74.67;58.00;;;;;;;;5064593;28;8836;-80
2022/01/16 00:51:01;;;;;;;;;84.67;62.33;;;;;;;;5047773;28;8828;-82
2022/01/16 00:53:29;;;;;;;;;84.00;63.00;;;;;;;;5065478;28;8840;-80
2022/01/16 00:55:56;;;;;;;;;78.33;60.00;;;;;;;;5065746;28;8871;-81
2022/01/16 00:58:23;;;;;;;;;70.33;52.67;;;;;;;;5065678;28;8902;-81
2022/01/16 01:00:52;;;;;;;;;73.67;56.33;;;;;;;;5065423;28;8820;-80
2022/01/16 01:03:19;;;;;;;;;74.67;58.33;;;;;;;;5048233;28;8836;-81
2022/01/16 01:05:47;;;;;;;;;76.33;58.33;;;;;;;;5064505;28;8890;-81
2022/01/16 01:08:14;;;;;;;;;78.00;56.00;;;;;;;;5065058;28;8848;-80
2022/01/16 01:10:44;;;;;;;;;70.00;54.67;;;;;;;;5064840;28;8864;-81
2022/01/16 01:13:21;;;;;;;;;61.67;52.67;;;;;;;;5066054;28;9670;-81
2022/01/16 01:15:50;;;;;;;;;85.67;60.33;;;;;;;;5064787;28;8935;-79
2022/01/16 01:18:20;;;;;;;;;72.67;60.33;;;;;;;;5065667;28;8848;-78
2022/01/16 01:20:49;;;;;;;;;75.33;59.00;;;;;;;;5061128;28;8923;-81
2022/01/16 01:23:16;;;;;;;;;74.67;58.00;;;;;;;;5065503;28;8991;-81
2022/01/16 01:25:44;;;;;;;;;72.00;55.33;;;;;;;;5065851;28;8947;-81
2022/01/16 01:28:12;;;;;;;;;78.67;60.33;;;;;;;;5047056;28;8872;-82
2022/01/16 01:30:41;;;;;;;;;80.33;60.67;;;;;;;;5065358;28;8990;-81
2022/01/16 01:33:08;;;;;;;;;72.00;56.00;;;;;;;;5065764;28;8866;-80
2022/01/16 01:35:38;;;;;;;;;87.33;64.00;;;;;;;;5065386;28;8857;-80
2022/01/16 01:38:07;;;;;;;;;63.00;50.67;;;;;;;;5064699;28;8860;-81
2022/01/16 01:40:35;;;;;;;;;68.33;57.00;;;;;;;;5065456;28;9633;-81
2022/01/16 01:51:00;;;;;;;;;69.67;55.33;;;;;;;;5065819;28;8845;-79
2022/01/16 01:51:27;;;;;;;;;67.67;50.67;;;;;;;;5063763;28;8840;-81
2022/01/16 01:53:56;;;;;;;;;74.67;55.00;;;;;;;;5054975;28;8861;-81
2022/01/16 01:56:25;;;;;;;;;71.67;55.00;;;;;;;;5064345;28;8883;-81
2022/01/16 01:58:55;;;;;;;;;69.00;56.33;;;;;;;;5066869;28;9715;-82
2022/01/16 02:01:23;;;;;;;;;64.33;50.33;;;;;;;;5058206;28;9589;-81
2022/01/16 02:03:50;;;;;;;;;68.00;56.00;;;;;;;;5064020;28;8874;-81
2022/01/16 02:06:19;;;;;;;;;67.33;53.67;;;;;;;;5065908;28;8967;-80
2022/01/16 02:08:50;;;;;;;;;72.00;56.67;;;;;;;;5064132;28;8880;-80
2022/01/16 02:11:19;;;;;;;;;74.00;57.33;;;;;;;;5046290;28;8865;-81
2022/01/16 02:13:55;;;;;;;;;68.00;52.33;;;;;;;;5047412;28;8958;-81
2022/01/16 02:30:51;;;;;;;;;69.00;53.33;;;;;;;;5062764;28;8829;-82
2022/01/16 02:36:03;;;;;;;;;75.33;58.00;;;;;;;;5064151;28;8842;-80
2022/01/16 02:38:32;;;;;;;;;53.33;44.00;;;;;;;;5061324;28;9025;-81
2022/01/16 02:41:03;;;;;;;;;74.00;57.67;;;;;;;;5066114;28;8876;-81
2022/01/16 02:43:32;;;;;;;;;74.00;57.00;;;;;;;;5063606;28;8833;-79
2022/01/16 02:46:35;;;;;;;;;74.67;58.67;;;;;;;;5062014;28;8856;-80
2022/01/16 02:48:58;;;;;;;;;76.33;56.33;;;;;;;;5061407;28;8852;-79
2022/01/16 02:51:27;;;;;;;;;69.67;56.33;;;;;;;;5062908;28;8967;-79
2022/01/16 02:53:57;;;;;;;;;73.33;56.00;;;;;;;;5062955;28;9608;-80
2022/01/16 02:56:24;;;;;;;;;73.33;59.33;;;;;;;;5069623;28;8978;-80
2022/01/16 02:58:52;;;;;;;;;79.33;58.00;;;;;;;;5064068;28;8999;-80
2022/01/16 03:01:20;;;;;;;;;74.67;59.00;;;;;;;;5062975;28;8809;-80
2022/01/16 03:03:48;;;;;;;;;76.33;61.00;;;;;;;;5063076;28;8871;-76
2022/01/16 03:06:16;;;;;;;;;63.00;54.33;;;;;;;;5062261;28;8937;-80
2022/01/16 03:08:44;;;;;;;;;74.33;59.67;;;;;;;;5061735;28;8856;-80
2022/01/16 03:11:20;;;;;;;;;66.67;51.00;;;;;;;;5047111;28;8937;-76
2022/01/16 03:13:49;;;;;;;;;78.33;61.00;;;;;;;;5040118;28;8963;-81
2022/01/16 03:16:16;;;;;;;;;74.00;56.33;;;;;;;;5064186;28;8887;-79
2022/01/16 03:24:13;;;;;;;;;80.00;62.33;;;;;;;;5062147;28;8840;-80
2022/01/16 03:26:43;;;;;;;;;66.00;53.00;;;;;;;;5062440;28;8970;-79
2022/01/16 03:29:10;;;;;;;;;64.67;55.00;;;;;;;;5041933;28;8879;-80
2022/01/16 03:31:38;;;;;;;;;76.67;58.67;;;;;;;;5064852;28;8866;-80
2022/01/16 03:34:05;;;;;;;;;66.67;50.67;;;;;;;;5061611;28;8860;-80
2022/01/16 03:36:32;;;;;;;;;70.67;58.67;;;;;;;;5045184;28;8890;-80
2022/01/16 03:39:00;;;;;;;;;76.00;59.00;;;;;;;;5044161;28;8867;-78
2022/01/16 03:41:28;;;;;;;;;71.67;55.00;;;;;;;;5062665;28;9658;-80
2022/01/16 03:44:02;;;;;;;;;71.33;56.67;;;;;;;;5062492;28;8999;-79
2022/01/16 03:46:34;;;;;;;;;72.00;58.33;;;;;;;;5063615;28;8852;-79
2022/01/16 03:49:03;;;;;;;;;68.67;54.00;;;;;;;;5044474;28;8825;-80
2022/01/16 03:51:31;;;;;;;;;60.00;47.67;;;;;;;;5061918;28;8867;-80
2022/01/16 03:53:58;;;;;;;;;64.00;50.00;;;;;;;;5061973;28;8860;-79
2022/01/16 03:56:25;;;;;;;;;59.33;48.33;;;;;;;;5045721;28;8872;-81
2022/01/16 03:58:53;;;;;;;;;68.33;50.33;;;;;;;;5063875;28;8874;-81
2022/01/16 04:01:24;;;;;;;;;67.67;55.33;;;;;;;;5060476;28;8820;-81
2022/01/16 04:03:51;;;;;;;;;71.67;57.00;;;;;;;;5044595;28;8872;-81
2022/01/16 04:06:19;;;;;;;;;60.00;52.00;;;;;;;;5062249;28;8856;-80
2022/01/16 04:08:47;;;;;;;;;73.67;58.33;;;;;;;;5062973;28;8832;-80
2022/01/16 04:11:14;;;;;;;;;64.00;55.00;;;;;;;;5056754;28;8829;-80
2022/01/16 04:13:51;;;;;;;;;76.00;60.00;;;;;;;;5060630;28;8876;-80
2022/01/16 04:16:22;;;;;;;;;64.00;54.67;;;;;;;;5046077;28;8941;-79
2022/01/16 04:18:51;;;;;;;;;61.00;49.00;;;;;;;;5059790;28;8872;-80
2022/01/16 04:21:19;;;;;;;;;54.67;50.00;;;;;;;;5063763;28;8871;-79
2022/01/16 04:23:47;;;;;;;;;70.67;57.67;;;;;;;;5048799;28;10163;-80
2022/01/16 04:26:15;;;;;;;;;67.00;53.67;;;;;;;;5066065;28;9603;-80
2022/01/16 04:28:42;;;;;;;;;52.00;46.00;;;;;;;;5067113;28;8933;-79
2022/01/16 04:31:10;;;;;;;;;61.33;52.33;;;;;;;;5063286;28;8838;-80
2022/01/16 04:33:39;;;;;;;;;64.33;51.67;;;;;;;;5065818;28;8913;-79
2022/01/16 04:36:07;;;;;;;;;49.00;46.00;;;;;;;;5062607;28;8885;-80
2022/01/16 04:38:36;;;;;;;;;51.00;46.33;;;;;;;;5065408;28;8873;-80
2022/01/16 04:43:49;;;;;;;;;67.00;53.67;;;;;;;;5065129;28;8852;-81
2022/01/16 04:46:16;;;;;;;;;66.33;51.33;;;;;;;;5066582;28;8903;-81
2022/01/16 04:48:45;;;;;;;;;61.67;53.33;;;;;;;;5064634;28;8860;-80
2022/01/16 04:51:13;;;;;;;;;53.33;46.67;;;;;;;;5065163;28;9614;-80
2022/01/16 04:53:41;;;;;;;;;52.00;47.33;;;;;;;;5053851;28;8862;-80
2022/01/16 04:56:08;;;;;;;;;60.67;49.67;;;;;;;;5066788;28;8857;-81
2022/01/16 04:58:36;;;;;;;;;61.67;50.67;;;;;;;;5065622;28;8844;-80
2022/01/16 05:01:04;;;;;;;;;57.00;51.00;;;;;;;;5065928;28;8872;-82
2022/01/16 05:03:33;;;;;;;;;58.00;50.00;;;;;;;;5065021;28;9668;-81
2022/01/16 05:06:03;;;;;;;;;48.33;45.00;;;;;;;;5063194;28;9539;-82
2022/01/16 05:08:31;;;;;;;;;67.67;54.00;;;;;;;;5066103;28;8872;-81
2022/01/16 05:10:59;;;;;;;;;53.67;47.00;;;;;;;;5065366;28;8962;-81
2022/01/16 05:16:34;;;;;;;;;54.00;48.33;;;;;;;;5049853;28;8865;-81
2022/01/16 05:16:37;;;;;;;;;44.33;44.00;;;;;;;;5057663;28;8864;-80
2022/01/16 05:19:07;;;;;;;;;60.00;48.33;;;;;;;;5063126;28;8888;-80
2022/01/16 05:21:36;;;;;;;;;49.33;43.67;;;;;;;;5046869;28;8860;-80
2022/01/16 05:24:07;;;;;;;;;50.67;46.00;;;;;;;;5062294;28;8898;-80
2022/01/16 05:26:35;;;;;;;;;38.33;36.67;;;;;;;;5047080;28;8868;-80
2022/01/16 05:29:03;;;;;;;;;65.00;52.67;;;;;;;;5063262;28;8840;-80
2022/01/16 05:31:30;;;;;;;;;57.33;47.33;;;;;;;;5062643;28;8812;-81
2022/01/16 05:33:57;;;;;;;;;54.33;47.00;;;;;;;;5062928;28;8821;-80
2022/01/16 05:36:25;;;;;;;;;67.00;53.67;;;;;;;;5063040;28;8852;-80
2022/01/16 05:38:54;;;;;;;;;56.00;48.67;;;;;;;;5064274;28;8840;-79
2022/01/16 05:41:22;;;;;;;;;41.33;39.67;;;;;;;;5063825;28;8961;-80
2022/01/16 05:43:50;;;;;;;;;55.33;47.33;;;;;;;;5065411;28;8882;-80
2022/01/16 05:46:17;;;;;;;;;49.33;44.00;;;;;;;;5045400;28;8864;-80
2022/01/16 05:48:44;;;;;;;;;37.00;34.00;;;;;;;;5067881;28;8978;-80
2022/01/16 05:51:11;;;;;;;;;64.00;54.33;;;;;;;;5064964;28;8886;-80
2022/01/16 05:53:39;;;;;;;;;63.00;52.00;;;;;;;;5062956;28;8859;-80
2022/01/16 05:56:08;;;;;;;;;52.00;45.67;;;;;;;;5064501;28;8860;-80
2022/01/16 05:58:35;;;;;;;;;49.33;46.00;;;;;;;;5062678;28;8874;-81
2022/01/16 06:01:03;;;;;;;;;51.67;45.33;;;;;;;;5063375;28;8801;-79
2022/01/16 06:03:30;;;;;;;;;48.67;45.33;;;;;;;;5062271;28;8906;-81
2022/01/16 06:05:58;;;;;;;;;45.33;43.00;;;;;;;;5045929;28;8904;-81
2022/01/16 06:08:25;;;;;;;;;56.67;46.33;;;;;;;;5063865;28;8840;-81
2022/01/16 06:10:52;;;;;;;;;58.33;47.67;;;;;;;;5063113;28;8999;-80
2022/01/16 06:13:21;;;;;;;;;53.00;46.33;;;;;;;;5046927;28;8852;-81
2022/01/16 06:15:49;;;;;;;;;55.00;49.67;;;;;;;;5062984;28;8894;-81
2022/01/16 06:18:16;;;;;;;;;47.67;45.67;;;;;;;;5064615;28;9618;-82
2022/01/16 06:20:43;;;;;;;;;46.00;43.67;;;;;;;;5063042;28;8907;-80
2022/01/16 06:23:12;;;;;;;;;44.33;43.00;;;;;;;;5063602;28;8904;-79
2022/01/16 06:25:39;;;;;;;;;54.67;47.00;;;;;;;;5061169;28;8962;-80
2022/01/16 06:28:07;;;;;;;;;49.67;45.67;;;;;;;;5060822;28;8912;-80
2022/01/16 06:30:36;;;;;;;;;47.33;42.33;;;;;;;;5064509;28;9030;-80
2022/01/16 06:33:06;;;;;;;;;53.00;48.00;;;;;;;;5065755;28;8873;-80
2022/01/16 06:35:33;;;;;;;;;50.00;44.33;;;;;;;;5062704;28;8967;-81
2022/01/16 06:38:01;;;;;;;;;45.33;43.00;;;;;;;;5044713;28;8945;-81
2022/01/16 06:40:28;;;;;;;;;49.33;45.00;;;;;;;;5045389;28;8860;-78
2022/01/16 06:42:56;;;;;;;;;55.67;47.00;;;;;;;;5062545;28;8971;-79
2022/01/16 06:45:23;;;;;;;;;48.00;42.33;;;;;;;;5063515;28;8982;-80
2022/01/16 06:47:52;;;;;;;;;39.00;34.00;;;;;;;;5061090;28;8860;-80
2022/01/16 06:50:19;;;;;;;;;46.67;40.00;;;;;;;;5044618;28;8864;-81
2022/01/16 06:52:47;;;;;;;;;47.33;37.00;;;;;;;;5045980;28;8856;-82
2022/01/16 06:55:14;;;;;;;;;42.67;40.33;;;;;;;;5042926;28;8902;-78
2022/01/16 06:57:42;;;;;;;;;44.33;38.33;;;;;;;;5059985;28;9008;-78
2022/01/16 07:00:10;;;;;;;;;57.67;47.33;;;;;;;;5063659;28;8872;-78
2022/01/16 07:02:38;;;;;;;;;27.67;27.67;;;;;;;;5062939;28;9717;-79
2022/01/16 07:05:07;;;;;;;;;31.67;28.67;;;;;;;;5060771;28;8844;-79
2022/01/16 07:07:35;;;;;;;;;40.00;32.67;;;;;;;;5062036;28;8875;-79
2022/01/16 07:10:02;;;;;;;;;46.33;41.00;;;;;;;;5045696;28;8880;-79
2022/01/16 07:12:30;;;;;;;;;49.67;41.33;;;;;;;;5045723;28;8848;-81
2022/01/16 07:14:57;;;;;;;;;44.33;36.67;;;;;;;;5063747;28;8906;-80
2022/01/16 07:17:24;;;;;;;;;47.00;42.33;;;;;;;;5060967;28;8869;-80
2022/01/16 07:19:52;;;;;;;;;58.33;48.33;;;;;;;;5063023;28;8864;-81
2022/01/16 07:22:21;;;;;;;;;40.00;39.33;;;;;;;;5062608;28;9641;-84
2022/01/16 07:24:49;;;;;;;;;58.00;47.00;;;;;;;;5061166;28;9007;-80
2022/01/16 07:27:16;;;;;;;;;54.00;45.00;;;;;;;;5062479;28;8925;-82
2022/01/16 07:29:43;;;;;;;;;55.33;43.33;;;;;;;;5060798;28;8880;-80
2022/01/16 07:32:11;;;;;;;;;48.33;41.67;;;;;;;;5045496;28;8805;-82
2022/01/16 07:34:38;;;;;;;;;41.33;38.00;;;;;;;;5047546;28;8880;-82
2022/01/16 07:37:06;;;;;;;;;63.67;47.00;;;;;;;;5049499;28;8894;-82
2022/01/16 07:39:37;;;;;;;;;52.33;45.33;;;;;;;;5058875;28;8861;-80
2022/01/16 07:42:05;;;;;;;;;66.67;47.67;;;;;;;;5062570;28;8937;-82
2022/01/16 07:44:32;;;;;;;;;54.67;45.67;;;;;;;;5059319;28;8845;-82
2022/01/16 07:47:00;;;;;;;;;53.67;39.33;;;;;;;;5059778;28;8876;-82
2022/01/16 07:49:27;;;;;;;;;50.67;41.00;;;;;;;;5042912;28;8983;-80
2022/01/16 07:51:55;;;;;;;;;49.00;41.67;;;;;;;;5059494;28;8867;-81
2022/01/16 07:54:22;;;;;;;;;47.67;40.67;;;;;;;;5065440;28;8860;-81
2022/01/16 07:56:51;;;;;;;;;55.00;43.00;;;;;;;;5047025;28;8900;-80
2022/01/16 07:59:18;;;;;;;;;51.33;42.33;;;;;;;;5066372;28;8880;-91
2022/01/16 08:01:46;;;;;;;;;66.00;47.00;;;;;;;;5067876;28;8803;-85
2022/01/16 08:04:13;;;;;;;;;60.33;51.33;;;;;;;;5049162;28;8887;-83
2022/01/16 08:06:41;;;;;;;;;61.00;47.33;;;;;;;;5066795;28;8888;-82
2022/01/16 08:09:08;;;;;;;;;49.67;44.67;;;;;;;;5047741;28;8883;-78
2022/01/16 08:11:35;;;;;;;;;51.67;45.33;;;;;;;;5050298;28;8856;-77
2022/01/16 08:14:04;;;;;;;;;54.33;40.00;;;;;;;;5062994;28;8857;-81
2022/01/16 08:16:31;;;;;;;;;55.00;45.33;;;;;;;;5063471;28;8901;-87
2022/01/16 08:18:59;;;;;;;;;51.67;42.00;;;;;;;;5061837;28;8852;-79
2022/01/16 08:21:26;;;;;;;;;53.33;39.33;;;;;;;;5063801;28;8886;-87
2022/01/16 08:23:54;;;;;;;;;49.67;44.67;;;;;;;;5063712;28;8819;-80
2022/01/16 08:26:21;;;;;;;;;63.33;46.00;;;;;;;;5062779;28;8868;-79
2022/01/16 08:28:49;;;;;;;;;56.67;46.00;;;;;;;;5061968;28;8870;-78
2022/01/16 08:31:18;;;;;;;;;72.33;47.33;;;;;;;;5045407;28;8832;-73
2022/01/16 08:33:45;;;;;;;;;66.00;48.00;;;;;;;;5062564;28;9654;-73
2022/01/16 08:36:12;;;;;;;;;52.33;47.00;;;;;;;;5061471;28;9695;-75
2022/01/16 08:38:40;;;;;;;;;57.67;45.00;;;;;;;;5049341;28;9638;-76
2022/01/16 08:41:07;;;;;;;;;54.67;48.00;;;;;;;;5063997;28;8970;-74
2022/01/16 08:43:34;;;;;;;;;58.33;46.33;;;;;;;;5048558;28;8924;-75
2022/01/16 08:46:02;;;;;;;;;75.67;56.00;;;;;;;;5061517;28;8868;-75
2022/01/16 08:48:31;;;;;;;;;53.33;46.67;;;;;;;;5060861;28;8904;-75
2022/01/16 08:50:59;;;;;;;;;54.33;42.33;;;;;;;;5061435;28;8844;-75
2022/01/16 08:53:26;;;;;;;;;67.33;50.67;;;;;;;;5062295;28;8930;-75
2022/01/16 08:55:53;;;;;;;;;55.00;45.67;;;;;;;;5064363;28;8884;-75
2022/01/16 08:58:21;;;;;;;;;60.00;49.00;;;;;;;;5061776;28;8880;-74
2022/01/16 09:00:50;;;;;;;;;57.00;45.00;;;;;;;;5042643;28;8963;-75
2022/01/16 09:03:17;;;;;;;;;53.00;46.00;;;;;;;;5061332;28;8883;-75
2022/01/16 09:05:46;;;;;;;;;53.00;45.33;;;;;;;;5059329;28;8898;-75
2022/01/16 09:08:14;;;;;;;;;54.33;42.33;;;;;;;;5062104;28;8892;-77
2022/01/16 09:10:41;;;;;;;;;53.00;46.00;;;;;;;;5059425;28;8872;-76
2022/01/16 09:13:11;;;;;;;;;64.00;43.33;;;;;;;;5062162;28;8876;-75
2022/01/16 09:15:39;;;;;;;;;63.00;46.00;;;;;;;;5060286;28;8871;-76
2022/01/16 09:18:07;;;;;;;;;58.67;48.00;;;;;;;;5062439;28;8864;-75
2022/01/16 09:20:34;;;;;;;;;68.33;55.00;;;;;;;;5061956;28;8864;-76
2022/01/16 09:23:04;;;;;;;;;58.33;47.33;;;;;;;;5061389;28;8868;-76
2022/01/16 09:25:31;;;;;;;;;63.00;49.33;;;;;;;;5062334;28;8852;-76
2022/01/16 09:27:58;;;;;;;;;50.67;44.67;;;;;;;;5061293;28;8900;-76
2022/01/16 09:30:26;;;;;;;;;62.67;51.67;;;;;;;;5059667;28;8813;-76
2022/01/16 09:32:53;;;;;;;;;50.67;45.00;;;;;;;;5061636;28;8860;-76
2022/01/16 09:35:21;;;;;;;;;71.00;52.67;;;;;;;;5062461;28;9634;-75
2022/01/16 09:37:49;;;;;;;;;68.67;49.67;;;;;;;;5050237;28;8895;-75
2022/01/16 09:40:20;;;;;;;;;53.33;42.00;;;;;;;;5062155;28;8896;-76
2022/01/16 09:42:48;;;;;;;;;68.67;52.67;;;;;;;;5063767;28;8872;-76
2022/01/16 09:45:17;;;;;;;;;69.00;51.67;;;;;;;;5062599;28;8860;-76
2022/01/16 09:47:45;;;;;;;;;61.33;52.67;;;;;;;;5063251;28;9688;-75
2022/01/16 09:50:15;;;;;;;;;63.00;49.33;;;;;;;;5059736;28;8983;-75
2022/01/16 09:52:44;;;;;;;;;72.33;53.00;;;;;;;;5063013;28;8860;-74
2022/01/16 09:55:13;;;;;;;;;71.67;55.00;;;;;;;;5062040;28;8876;-75
2022/01/16 09:57:43;;;;;;;;;70.00;54.00;;;;;;;;5062127;28;8887;-75
2022/01/16 10:00:13;;;;;;;;;66.00;50.00;;;;;;;;5060169;28;8844;-75
2022/01/16 10:02:41;;;;;;;;;74.00;55.33;;;;;;;;5060021;28;9001;-75
2022/01/16 10:05:26;;;;;;;;;74.67;57.00;;;;;;;;5063954;28;9006;-75
2022/01/16 10:07:55;;;;;;;;;67.67;53.33;;;;;;;;5061723;28;8884;-75
2022/01/16 10:10:26;;;;;;;;;67.67;53.67;;;;;;;;5062207;28;8852;-75
2022/01/16 10:12:57;;;;;;;;;67.33;55.33;;;;;;;;5060284;28;8856;-75
2022/01/16 10:15:27;;;;;;;;;71.00;56.00;;;;;;;;5060205;28;8875;-75
2022/01/16 10:17:56;;;;;;;;;65.67;52.00;;;;;;;;5061365;28;9645;-75
2022/01/16 10:20:25;;;;;;;;;58.33;49.33;;;;;;;;5038013;28;8914;-75
2022/01/16 10:22:54;;;;;;;;;62.67;49.33;;;;;;;;5058798;28;8892;-75
2022/01/16 10:25:37;;;;;;;;;62.67;50.67;;;;;;;;5061260;28;8887;-75
2022/01/16 10:28:14;;;;;;;;;64.67;51.33;;;;;;;;5059364;28;8861;-75
2022/01/16 10:30:43;;;;;;;;;54.00;44.67;;;;;;;;5062410;28;9570;-75
2022/01/16 10:33:15;;;;;;;;;68.67;45.33;;;;;;;;5060323;28;8899;-77
2022/01/16 10:35:44;;;;;;;;;63.67;51.67;;;;;;;;5059285;28;9010;-75
2022/01/16 10:38:16;;;;;;;;;63.33;50.00;;;;;;;;5058868;28;8860;-76
2022/01/16 10:40:44;;;;;;;;;60.33;45.67;;;;;;;;5058175;28;8900;-79
2022/01/16 10:43:16;;;;;;;;;50.33;45.67;;;;;;;;5059800;28;8904;-77
2022/01/16 10:45:45;;;;;;;;;58.33;45.00;;;;;;;;5040343;28;8894;-81
2022/01/16 10:48:13;;;;;;;;;67.00;52.00;;;;;;;;5059336;28;8860;-81
2022/01/16 10:50:43;;;;;;;;;59.33;49.67;;;;;;;;5060844;28;9665;-79
2022/01/16 10:53:12;;;;;;;;;58.67;45.33;;;;;;;;5063945;28;8860;-82
2022/01/16 10:55:43;;;;;;;;;62.00;50.33;;;;;;;;5057078;28;9003;-80
2022/01/16 10:58:15;;;;;;;;;54.33;44.33;;;;;;;;5059919;28;8887;-80
2022/01/16 11:00:45;;;;;;;;;56.33;44.00;;;;;;;;5060757;28;8785;-81
2022/01/16 11:03:13;;;;;;;;;69.00;50.33;;;;;;;;5041805;28;8880;-83
2022/01/16 11:05:44;;;;;;;;;62.67;47.33;;;;;;;;5042264;28;8908;-82
2022/01/16 11:08:14;;;;;;;;;64.33;50.33;;;;;;;;5059482;28;8937;-82
2022/01/16 11:10:42;;;;;;;;;62.33;51.67;;;;;;;;5061466;28;8995;-81
2022/01/16 11:13:13;;;;;;;;;61.00;48.00;;;;;;;;5059224;28;8867;-81
2022/01/16 11:15:42;;;;;;;;;69.33;48.67;;;;;;;;5059409;28;8872;-77
2022/01/16 11:18:10;;;;;;;;;60.33;47.33;;;;;;;;5059104;28;8857;-84
2022/01/16 11:20:38;;;;;;;;;63.67;49.33;;;;;;;;5059205;28;8882;-78
2022/01/16 11:23:15;;;;;;;;;51.67;44.00;;;;;;;;5058401;28;9004;-82
2022/01/16 11:25:44;;;;;;;;;59.33;43.33;;;;;;;;5058546;28;8860;-79
2022/01/16 11:28:16;;;;;;;;;51.00;44.00;;;;;;;;5058853;28;11723;-78
2022/01/16 11:30:46;;;;;;;;;64.67;51.00;;;;;;;;5056743;28;11547;-77
2022/01/16 11:33:13;;;;;;;;;55.67;44.00;;;;;;;;5060109;28;8857;-79
2022/01/16 11:35:45;;;;;;;;;51.33;44.33;;;;;;;;5060312;28;11550;-77
2022/01/16 11:38:13;;;;;;;;;42.25;39.25;;;;;;;;5060341;28;11587;-79
2022/01/16 11:40:45;;;;;;;;;57.67;46.33;;;;;;;;5043735;28;11780;-78
2022/01/16 11:43:18;;;;;;;;;38.25;30.75;;;;;;;;5058154;28;12416;-80
2022/01/16 11:45:48;;;;;;;;;52.00;37.33;;;;;;;;5064386;28;12438;-76
2022/01/16 11:48:19;;;;;;;;;48.00;40.67;;;;;;;;5040812;28;11578;-80
2022/01/16 11:50:47;;;;;;;;;50.67;43.00;;;;;;;;5057976;28;11591;-81
2022/01/16 11:53:48;;;;;;;;;47.33;41.67;;;;;;;;5041671;28;11615;-79
2022/01/16 11:56:53;;;;;;;;;44.33;40.33;;;;;;;;5059815;28;11614;-78
2022/01/16 11:59:24;;;;;;;;;55.00;42.67;;;;;;;;5057788;28;11566;-80
2022/01/16 12:01:53;;;;;;;;;46.00;37.33;;;;;;;;5058308;28;11525;-78
2022/01/16 12:04:49;;;;;;;;;63.67;46.67;;;;;;;;5057496;28;12360;-86
2022/01/16 12:07:50;;;;;;;;;51.33;45.67;;;;;;;;5057323;28;11588;-81
2022/01/16 12:10:45;;;;;;;;;56.00;42.33;;;;;;;;5054897;28;11560;-78
2022/01/16 12:13:57;;;;;;;;;40.67;35.00;;;;;;;;5060542;28;8876;-80
2022/01/16 12:16:46;;;;;;;;;64.67;51.33;;;;;;;;5058750;28;11551;-78
2022/01/16 12:19:48;;;;;;;;;51.00;42.00;;;;;;;;5064363;28;11599;-78
2022/01/16 12:22:18;;;;;;;;;58.33;45.00;;;;;;;;5055157;28;11696;-77
2022/01/16 12:24:49;;;;;;;;;57.00;44.00;;;;;;;;5060059;28;11576;-78
2022/01/16 12:27:47;;;;;;;;;52.67;43.33;;;;;;;;5054627;28;11565;-79
2022/01/16 12:30:37;;;;;;;;;58.67;46.33;;;;;;;;5053962;28;11575;-77
2022/01/16 12:33:09;;;;;;;;;54.67;46.67;;;;;;;;5058364;28;11533;-76
2022/01/16 12:36:23;;;;;;;;;46.00;44.33;;;;;;;;5059218;28;11723;-76
2022/01/16 12:39:11;;;;;;;;;46.00;42.33;;;;;;;;5012533;28;11546;-76
2022/01/16 12:41:43;;;;;;;;;49.67;44.67;;;;;;;;5058520;28;11596;-76
2022/01/16 12:44:12;;;;;;;;;47.00;39.75;;;;;;;;5042376;28;11541;-77
2022/01/16 12:46:42;;;;;;;;;43.00;36.00;;;;;;;;5055755;28;12638;-76
2022/01/16 12:49:13;;;;;;;;;64.67;48.33;;;;;;;;5062867;28;12271;-76
2022/01/16 12:51:42;;;;;;;;;49.00;41.33;;;;;;;;5063623;28;12611;-76
2022/01/16 12:54:11;;;;;;;;;62.67;48.00;;;;;;;;5064520;28;11598;-76
2022/01/16 12:56:42;;;;;;;;;50.00;42.25;;;;;;;;5043491;28;11665;-76
2022/01/16 12:59:14;;;;;;;;;50.50;41.75;;;;;;;;5063514;28;11591;-76
2022/01/16 13:01:46;;;;;;;;;46.00;37.75;;;;;;;;5058390;28;11595;-77
2022/01/16 13:04:24;;;;;;;;;59.67;45.00;;;;;;;;5065085;28;11630;-77
2022/01/16 13:06:51;;;;;;;;;61.00;47.50;;;;;;;;5061948;28;11560;-77
2022/01/16 13:09:19;;;;;;;;;48.25;44.50;;;;;;;;5046871;28;11599;-78
2022/01/16 13:11:48;;;;;;;;;54.25;44.50;;;;;;;;5062319;28;11533;-77
2022/01/16 13:14:16;;;;;;;;;52.50;44.00;;;;;;;;5061971;28;12583;-82
2022/01/16 13:16:45;;;;;;;;;52.00;42.25;;;;;;;;5060581;28;12273;-78
2022/01/16 13:19:16;;;;;;;;;49.50;44.75;;;;;;;;5060950;28;12388;-78
2022/01/16 13:22:04;;;;;;;;;45.75;40.75;;;;;;;;5057412;28;11629;-77
2022/01/16 13:24:34;;;;;;;;;36.75;32.75;;;;;;;;5059458;28;11562;-77
2022/01/16 13:27:04;;;;;;;;;47.75;45.25;;;;;;;;5059483;28;11581;-77
2022/01/16 13:29:32;;;;;;;;;59.25;47.00;;;;;;;;5061848;28;11576;-76
2022/01/16 13:32:02;;;;;;;;;40.50;36.75;;;;;;;;5060523;28;11555;-77
2022/01/16 13:34:43;;;;;;;;;43.00;36.00;;;;;;;;5040938;28;11619;-81
2022/01/16 13:37:21;;;;;;;;;40.00;36.00;;;;;;;;5059343;28;12400;-79
2022/01/16 13:39:51;;;;;;;;;45.25;36.00;;;;;;;;5043130;28;11601;-77
2022/01/16 13:42:24;;;;;;;;;39.25;37.25;;;;;;;;5044969;28;11549;-77
2022/01/16 13:44:51;;;;;;;;;41.25;39.00;;;;;;;;5062615;28;11666;-78
2022/01/16 13:47:20;;;;;;;;;46.25;40.50;;;;;;;;5061354;28;11592;-78
2022/01/16 13:49:48;;;;;;;;;45.50;36.50;;;;;;;;5057399;28;11576;-76
2022/01/16 13:52:25;;;;;;;;;42.50;38.75;;;;;;;;5057950;28;11574;-79
2022/01/16 13:55:07;;;;;;;;;41.50;37.00;;;;;;;;5059321;28;12357;-75
2022/01/16 13:57:35;;;;;;;;;45.75;41.00;;;;;;;;5059304;28;11640;-77
2022/01/16 14:00:05;;;;;;;;;46.25;40.75;;;;;;;;5065866;28;11565;-74
2022/01/16 14:02:32;;;;;;;;;44.25;37.50;;;;;;;;5059926;28;11543;-77
2022/01/16 14:05:00;;;;;;;;;45.50;35.75;;;;;;;;5059836;28;11583;-75
2022/01/16 14:07:29;;;;;;;;;44.75;40.00;;;;;;;;5057440;28;11561;-82
2022/01/16 14:09:56;;;;;;;;;36.75;36.00;;;;;;;;5061629;28;12393;-81
2022/01/16 14:12:24;;;;;;;;;38.50;34.75;;;;;;;;5062429;28;11592;-81
2022/01/16 14:14:52;;;;;;;;;33.75;30.75;;;;;;;;5060459;28;11721;-82
2022/01/16 14:17:42;;;;;;;;;40.25;35.25;;;;;;;;5042422;28;11614;-80
2022/01/16 14:20:47;;;;;;;;;34.25;31.50;;;;;;;;5025576;28;11650;-80
2022/01/16 14:23:15;;;;;;;;;45.00;33.75;;;;;;;;5056084;28;11559;-82
2022/01/16 14:25:43;;;;;;;;;34.00;31.00;;;;;;;;5058031;28;12505;-80
2022/01/16 14:28:11;;;;;;;;;32.75;31.75;;;;;;;;5057225;28;11582;-81
2022/01/16 14:30:38;;;;;;;;;30.00;25.00;;;;;;;;5061518;28;11497;-80
2022/01/16 14:33:05;;;;;;;;;32.75;29.75;;;;;;;;5002503;28;11605;-81
2022/01/16 14:35:33;;;;;;;;;33.25;30.50;;;;;;;;5062173;28;11555;-82
2022/01/16 14:38:00;;;;;;;;;35.00;28.00;;;;;;;;5059549;28;12394;-83
2022/01/16 14:40:29;;;;;;;;;34.00;34.00;;;;;;;;5044372;28;11568;-81
2022/01/16 14:43:04;;;;;;;;;29.50;27.75;;;;;;;;5062587;28;11591;-81
2022/01/16 14:45:32;;;;;;;;;29.50;28.25;;;;;;;;5059729;28;11668;-84
2022/01/16 14:47:59;;;;;;;;;32.00;27.50;;;;;;;;5060313;28;11528;-81
2022/01/16 14:50:27;;;;;;;;;34.75;28.50;;;;;;;;5058389;28;11568;-82
2022/01/16 14:52:54;;;;;;;;;38.00;34.25;;;;;;;;5061879;28;11529;-77
2022/01/16 14:55:21;;;;;;;;;38.75;34.25;;;;;;;;5059169;28;11668;-79
2022/01/16 14:57:50;;;;;;;;;31.75;26.50;;;;;;;;5060255;28;11575;-79
2022/01/16 15:00:18;;;;;;;;;18.25;18.25;;;;;;;;5059503;28;11599;-80
2022/01/16 15:02:46;;;;;;;;;29.25;26.00;;;;;;;;5060222;28;11551;-86
2022/01/16 15:05:14;;;;;;;;;30.00;25.50;;;;;;;;5060599;28;11574;-84
2022/01/16 15:07:44;;;;;;;;;46.25;38.25;;;;;;;;5058912;28;11552;-84
2022/01/16 15:10:13;;;;;;;;;32.75;29.50;;;;;;;;5061281;28;11824;-81
2022/01/16 15:12:41;;;;;;;;;25.25;23.25;;;;;;;;5061935;28;11557;-84
2022/01/16 15:15:11;;;;;;;;;37.50;33.50;;;;;;;;5060073;28;11653;-84